Time;durP1;ratioP1;P1;durP2;ratioP2;P2;SDS_P1;SDS_P2;PMS_P1;PMS_P2;Temp;Humidity;BMP_temperature;BMP_pressure;BME280_temperature;BME280_humidity;BME280_pressure;Samples;Min_cycle;Max_cycle;Signal;HPM_P1;HPM_P2
2021/11/08 00:02:44;;;;;;;8.27;5.28;;;;;;;;;;21079866;28;20052;-59
2021/11/08 00:12:46;;;;;;;9.35;5.65;;;;;;;;;;21080156;28;20052;-59
2021/11/08 00:22:49;;;;;;;9.98;5.13;;;;;;;;;;21078510;28;20056;-59
2021/11/08 00:32:51;;;;;;;7.25;3.92;;;;;;;;;;21079845;28;20410;-59
2021/11/08 00:42:53;;;;;;;6.95;4.40;;;;;;;;;;21079118;28;20044;-59
2021/11/08 00:52:55;;;;;;;9.00;4.65;;;;;;;;;;21078152;28;20051;-60
2021/11/08 01:03:00;;;;;;;6.03;4.22;;;;;;;;;;21077657;28;20052;-56
2021/11/08 01:13:03;;;;;;;4.97;3.83;;;;;;;;;;21077138;28;20048;-58
2021/11/08 01:23:06;;;;;;;6.70;3.58;;;;;;;;;;21077676;28;20137;-56
2021/11/08 01:33:09;;;;;;;4.65;3.53;;;;;;;;;;21083318;28;20056;-56
2021/11/08 01:43:12;;;;;;;6.00;4.30;;;;;;;;;;21090980;28;20093;-56
2021/11/08 01:53:15;;;;;;;6.45;4.70;;;;;;;;;;21089885;28;20134;-58
2021/11/08 02:03:17;;;;;;;7.15;4.68;;;;;;;;;;21088940;28;20059;-59
2021/11/08 02:13:22;;;;;;;5.60;4.03;;;;;;;;;;21087910;28;20131;-58
2021/11/08 02:23:26;;;;;;;4.78;3.92;;;;;;;;;;21088223;28;20052;-59
2021/11/08 02:33:30;;;;;;;6.30;4.07;;;;;;;;;;21086965;28;20056;-58
2021/11/08 02:43:38;;;;;;;5.18;4.15;;;;;;;;;;21068022;28;20099;-59
2021/11/08 02:53:47;;;;;;;6.85;4.25;;;;;;;;;;21067831;28;20093;-58
2021/11/08 03:03:58;;;;;;;4.93;4.00;;;;;;;;;;21084084;28;20434;-56
2021/11/08 03:14:06;;;;;;;5.53;4.25;;;;;;;;;;21083635;28;20047;-56
2021/11/08 03:24:20;;;;;;;5.38;4.20;;;;;;;;;;21082906;28;20066;-57
2021/11/08 03:34:30;;;;;;;6.88;4.35;;;;;;;;;;21082195;28;20524;-57
2021/11/08 03:44:51;;;;;;;6.63;4.10;;;;;;;;;;21082265;28;20422;-56
2021/11/08 03:55:13;;;;;;;5.28;4.00;;;;;;;;;;21071752;28;20055;-56
2021/11/08 04:05:33;;;;;;;7.07;3.85;;;;;;;;;;21079604;28;20086;-57
2021/11/08 04:15:50;;;;;;;6.13;3.90;;;;;;;;;;21079095;28;20109;-56
2021/11/08 04:26:06;;;;;;;6.35;4.72;;;;;;;;;;21078664;28;20089;-57
2021/11/08 05:38:16;;;;;;;6.15;4.00;;;;;;;;;;21091176;28;20062;-58
2021/11/08 05:48:22;;;;;;;5.57;3.90;;;;;;;;;;21090280;28;20048;-59
2021/11/08 06:50:32;;;;;;;9.70;5.07;;;;;;;;;;20827770;28;20514;-58
2021/11/08 07:00:35;;;;;;;9.25;5.30;;;;;;;;;;20972782;28;20055;-57
2021/11/08 07:10:41;;;;;;;7.28;4.05;;;;;;;;;;21083880;28;20048;-58
2021/11/08 07:20:45;;;;;;;7.90;4.13;;;;;;;;;;21083266;28;20075;-58
2021/11/08 07:30:47;;;;;;;8.73;4.97;;;;;;;;;;21081440;28;20442;-59
2021/11/08 07:40:51;;;;;;;6.57;5.05;;;;;;;;;;21080937;28;20436;-57
2021/11/08 07:50:55;;;;;;;8.43;5.05;;;;;;;;;;21080558;28;20062;-57
2021/11/08 08:00:57;;;;;;;6.43;4.47;;;;;;;;;;21079406;28;20412;-55
2021/11/08 08:11:03;;;;;;;6.60;5.53;;;;;;;;;;21078504;28;20091;-57
2021/11/08 08:21:08;;;;;;;10.25;5.65;;;;;;;;;;21076954;28;20056;-56
2021/11/08 08:31:13;;;;;;;8.80;6.32;;;;;;;;;;21076559;28;20075;-58
2021/11/08 08:41:17;;;;;;;10.95;6.20;;;;;;;;;;21081159;28;20059;-58
2021/11/08 08:51:20;;;;;;;13.60;8.27;;;;;;;;;;21093381;28;20074;-61
2021/11/08 09:01:23;;;;;;;17.00;7.63;;;;;;;;;;21092018;28;20058;-58
2021/11/08 09:11:26;;;;;;;12.35;7.40;;;;;;;;;;21091662;28;20058;-59
2021/11/08 09:21:30;;;;;;;15.02;9.05;;;;;;;;;;21090259;28;20044;-59
2021/11/08 09:31:33;;;;;;;12.48;6.68;;;;;;;;;;21088434;28;20079;-58
2021/11/08 09:41:38;;;;;;;11.35;6.88;;;;;;;;;;21087943;28;20043;-59
2021/11/08 09:51:43;;;;;;;10.20;6.93;;;;;;;;;;21088465;28;20059;-57
2021/11/08 10:01:47;;;;;;;10.80;7.80;;;;;;;;;;21085172;28;20109;-57
2021/11/08 10:11:50;;;;;;;9.23;6.05;;;;;;;;;;21086738;28;20055;-56
2021/11/08 10:21:53;;;;;;;10.95;5.68;;;;;;;;;;21085473;28;20048;-59
2021/11/08 10:32:03;;;;;;;9.52;5.68;;;;;;;;;;21085641;28;20118;-57
2021/11/08 10:42:07;;;;;;;8.40;5.32;;;;;;;;;;21084687;28;20052;-57
2021/11/08 10:52:14;;;;;;;7.15;4.60;;;;;;;;;;21083824;28;20412;-60
2021/11/08 11:02:18;;;;;;;8.25;3.83;;;;;;;;;;21082123;28;20091;-59
2021/11/08 11:12:25;;;;;;;4.95;2.15;;;;;;;;;;21081710;28;20097;-59
2021/11/08 11:22:27;;;;;;;6.75;2.85;;;;;;;;;;21081882;28;20044;-59
2021/11/08 11:32:30;;;;;;;16.05;10.07;;;;;;;;;;21080240;28;20075;-59
2021/11/08 11:42:44;;;;;;;2.92;1.52;;;;;;;;;;21080776;28;20078;-59
2021/11/08 11:52:46;;;;;;;2.92;1.05;;;;;;;;;;21078852;28;20058;-59
2021/11/08 12:02:51;;;;;;;3.38;1.13;;;;;;;;;;21077672;28;20458;-59
2021/11/08 12:12:54;;;;;;;3.07;2.07;;;;;;;;;;21076902;28;20047;-59
2021/11/08 12:22:56;;;;;;;2.13;1.30;;;;;;;;;;21075282;28;20450;-58
2021/11/08 12:33:00;;;;;;;3.88;0.68;;;;;;;;;;21076788;28;20381;-60
2021/11/08 12:43:02;;;;;;;2.15;0.90;;;;;;;;;;21078307;28;20044;-58
2021/11/08 12:53:04;;;;;;;4.20;1.40;;;;;;;;;;21077169;28;20104;-58
2021/11/08 13:03:15;;;;;;;3.40;0.70;;;;;;;;;;21076992;28;20052;-59
2021/11/08 13:13:21;;;;;;;1.50;0.60;;;;;;;;;;21076369;28;20447;-59
2021/11/08 13:23:25;;;;;;;1.50;0.77;;;;;;;;;;21076612;28;20581;-58
2021/11/08 13:33:29;;;;;;;1.23;0.50;;;;;;;;;;21088095;28;20048;-59
2021/11/08 13:43:35;;;;;;;2.17;1.00;;;;;;;;;;21090759;28;20048;-58
2021/11/08 13:53:38;;;;;;;2.70;1.00;;;;;;;;;;21090586;28;20052;-58
2021/11/08 14:03:44;;;;;;;3.13;1.50;;;;;;;;;;21089202;28;20067;-58
2021/11/08 14:13:46;;;;;;;2.28;0.82;;;;;;;;;;21088235;28;20056;-60
2021/11/08 14:23:55;;;;;;;4.57;1.48;;;;;;;;;;21087226;28;20052;-59
2021/11/08 14:34:03;;;;;;;2.72;0.85;;;;;;;;;;21087205;28;20047;-59
2021/11/08 14:44:08;;;;;;;1.52;0.70;;;;;;;;;;21086432;28;20109;-59
2021/11/08 14:54:10;;;;;;;;;;;;;;;;;;21085431;28;20058;-58
2021/11/08 15:04:14;;;;;;;2.05;0.70;;;;;;;;;;21083926;28;19920;-58
2021/11/08 15:14:21;;;;;;;4.68;0.80;;;;;;;;;;21083320;28;20052;-59
2021/11/08 15:24:28;;;;;;;2.17;0.60;;;;;;;;;;21082747;28;20454;-59
2021/11/08 15:34:35;;;;;;;8.45;1.10;;;;;;;;;;21081687;28;20062;-54
2021/11/08 15:44:38;;;;;;;1.67;0.60;;;;;;;;;;21080612;28;20044;-54
2021/11/08 15:54:40;;;;;;;0.85;0.50;;;;;;;;;;21078663;28;20052;-58
2021/11/08 16:04:44;;;;;;;1.70;0.80;;;;;;;;;;21079350;28;20086;-55
2021/11/08 16:14:47;;;;;;;1.63;0.77;;;;;;;;;;21079374;28;20450;-56
2021/11/08 16:24:51;;;;;;;1.20;0.60;;;;;;;;;;21078238;28;20052;-56
2021/11/08 16:34:56;;;;;;;3.63;0.75;;;;;;;;;;21077740;28;20052;-70
2021/11/08 16:44:58;;;;;;;1.30;0.70;;;;;;;;;;21078596;28;20044;-58
2021/11/08 16:55:05;;;;;;;2.10;0.70;;;;;;;;;;21077122;28;20056;-53
2021/11/08 17:05:08;;;;;;;5.28;1.10;;;;;;;;;;21086550;28;20048;-53
2021/11/08 17:15:11;;;;;;;2.43;0.77;;;;;;;;;;21094149;28;20157;-53
2021/11/08 17:25:13;;;;;;;4.28;2.00;;;;;;;;;;21092265;28;20040;-54
2021/11/08 17:35:16;;;;;;;7.60;2.45;;;;;;;;;;21091758;28;20130;-62
2021/11/08 17:45:19;;;;;;;6.00;2.75;;;;;;;;;;21090979;28;20090;-54
2021/11/08 17:55:23;;;;;;;4.90;2.22;;;;;;;;;;21091100;28;20131;-51
2021/11/08 18:05:26;;;;;;;5.17;3.97;;;;;;;;;;21089539;28;20412;-57
2021/11/08 18:15:28;;;;;;;7.10;3.25;;;;;;;;;;21087901;28;20056;-57
2021/11/08 18:25:53;;;;;;;6.45;2.78;;;;;;;;;;21087303;28;20058;-60
2021/11/08 18:35:58;;;;;;;7.50;4.07;;;;;;;;;;21087858;28;20056;-57
2021/11/08 18:46:01;;;;;;;6.88;4.40;;;;;;;;;;21085442;28;20186;-58
2021/11/08 18:56:03;;;;;;;5.93;3.20;;;;;;;;;;21082654;28;20087;-58
2021/11/08 19:16:32;;;;;;;4.80;2.47;;;;;;;;;;20825745;28;20080;-58
2021/11/08 19:26:35;;;;;;;6.43;2.50;;;;;;;;;;20824088;28;20062;-56
2021/11/08 19:46:58;;;;;;;10.35;5.72;;;;;;;;;;20881885;28;20135;-56
2021/11/08 19:57:00;;;;;;;14.77;7.32;;;;;;;;;;21078393;28;20135;-58
2021/11/08 20:07:09;;;;;;;20.40;11.32;;;;;;;;;;21079643;28;20396;-61
2021/11/08 20:17:11;;;;;;;16.40;7.63;;;;;;;;;;21072084;28;20064;-58
2021/11/08 20:27:15;;;;;;;21.20;11.35;;;;;;;;;;21077702;28;20074;-58
2021/11/08 20:37:23;;;;;;;19.30;8.73;;;;;;;;;;21077110;28;20044;-56
2021/11/08 21:18:09;;;;;;;25.88;14.40;;;;;;;;;;20902211;28;20051;-61
2021/11/08 21:28:24;;;;;;;12.93;6.80;;;;;;;;;;20901012;28;20064;-60
2021/11/08 21:38:30;;;;;;;16.60;7.57;;;;;;;;;;20993419;28;20044;-59
2021/11/08 21:48:32;;;;;;;28.48;11.80;;;;;;;;;;21079485;28;20052;-59
2021/11/08 21:58:36;;;;;;;43.17;16.23;;;;;;;;;;21089844;28;20044;-57
2021/11/08 22:08:38;;;;;;;58.70;23.63;;;;;;;;;;21089409;28;20129;-58
2021/11/08 22:18:40;;;;;;;14.43;6.53;;;;;;;;;;21088304;28;20048;-57
2021/11/08 22:28:43;;;;;;;7.45;4.03;;;;;;;;;;21089286;28;20095;-57
2021/11/08 22:38:45;;;;;;;6.70;3.55;;;;;;;;;;21092283;28;20093;-58
2021/11/08 22:48:47;;;;;;;5.82;3.25;;;;;;;;;;21087246;28;20054;-59
2021/11/08 22:58:49;;;;;;;8.43;3.60;;;;;;;;;;21084715;28;20048;-63
2021/11/08 23:08:53;;;;;;;8.18;4.13;;;;;;;;;;21085372;28;20105;-57
2021/11/08 23:18:55;;;;;;;12.20;5.03;;;;;;;;;;21084895;28;20044;-57
2021/11/08 23:28:57;;;;;;;10.77;4.78;;;;;;;;;;21082626;28;20051;-57
2021/11/08 23:38:59;;;;;;;28.27;13.38;;;;;;;;;;21082708;28;20107;-60
2021/11/08 23:49:01;;;;;;;13.38;7.00;;;;;;;;;;21082000;28;20047;-59
2021/11/08 23:59:03;;;;;;;8.50;5.45;;;;;;;;;;21081187;28;20052;-62
